Time;durP1;ratioP1;P1;durP2;ratioP2;P2;SDS_P1;SDS_P2;PMS_P1;PMS_P2;Temp;Humidity;BMP_temperature;BMP_pressure;BME280_temperature;BME280_humidity;BME280_pressure;Samples;Min_cycle;Max_cycle;Signal;HPM_P1;HPM_P2
2021/09/01 00:02:21;;;;;;;9.75;7.00;;;;;;;12.00;87.17;102227.44;5037212;28;20052;-50
2021/09/01 00:04:47;;;;;;;11.05;6.70;;;;;;;12.02;87.10;102230.72;5031350;28;20044;-50
2021/09/01 00:07:12;;;;;;;12.13;6.95;;;;;;;12.01;87.60;102231.78;5036304;28;20028;-51
2021/09/01 00:09:38;;;;;;;12.25;6.80;;;;;;;12.05;87.55;102224.94;5034826;28;20060;-53
2021/09/01 00:12:05;;;;;;;12.60;6.80;;;;;;;12.14;87.18;102228.97;5036655;28;20033;-52
2021/09/01 00:14:31;;;;;;;11.07;6.78;;;;;;;12.19;87.11;102230.97;5035333;28;20036;-50
2021/09/01 00:16:56;;;;;;;14.77;7.85;;;;;;;12.28;86.95;102232.34;5037127;28;20028;-51
2021/09/01 00:19:22;;;;;;;11.40;6.82;;;;;;;12.37;86.60;102234.50;5037250;28;20425;-52
2021/09/01 00:21:47;;;;;;;11.43;6.65;;;;;;;12.40;86.94;102234.09;5035563;28;20115;-50
2021/09/01 00:24:13;;;;;;;10.10;6.65;;;;;;;12.45;86.38;102222.66;5039133;28;20053;-51
2021/09/01 00:26:39;;;;;;;9.55;6.60;;;;;;;12.52;85.97;102223.38;5034001;28;20028;-51
2021/09/01 00:29:04;;;;;;;10.93;6.78;;;;;;;12.48;86.05;102222.19;5038121;28;20025;-54
2021/09/01 00:31:30;;;;;;;13.05;6.72;;;;;;;12.59;85.20;102226.00;5037287;28;20044;-52
2021/09/01 00:33:55;;;;;;;11.32;7.47;;;;;;;12.60;85.17;102224.97;5038569;28;20437;-52
2021/09/01 00:36:22;;;;;;;11.80;6.72;;;;;;;12.51;85.72;102226.28;5038279;28;20028;-54
2021/09/01 00:38:48;;;;;;;10.75;6.95;;;;;;;12.35;87.02;102228.53;5038126;28;20098;-51
2021/09/01 00:41:18;;;;;;;11.20;6.80;;;;;;;12.34;87.06;102232.25;5041426;28;20033;-50
2021/09/01 00:43:48;;;;;;;10.35;6.70;;;;;;;12.42;86.84;102230.34;5033863;28;20139;-55
2021/09/01 00:46:13;;;;;;;11.50;6.57;;;;;;;12.37;87.11;102239.88;5039904;28;20017;-51
2021/09/01 00:48:39;;;;;;;10.45;6.65;;;;;;;12.33;87.27;102240.56;5036391;28;20032;-52
2021/09/01 00:51:04;;;;;;;11.88;6.97;;;;;;;12.37;86.93;102241.75;5039686;28;20048;-53
2021/09/01 00:53:34;;;;;;;10.85;6.70;;;;;;;12.37;87.15;102241.75;5036561;28;20033;-53
2021/09/01 00:56:00;;;;;;;8.50;6.45;;;;;;;12.38;86.82;102238.84;5033356;28;20037;-53
2021/09/01 00:58:28;;;;;;;13.27;7.28;;;;;;;12.36;86.90;102240.94;5038356;28;20029;-50
2021/09/01 01:03:22;;;;;;;10.38;6.78;;;;;;;12.34;86.89;102244.88;5042211;28;20049;-52
2021/09/01 01:05:48;;;;;;;10.15;7.25;;;;;;;12.25;87.01;102244.38;5042624;28;20503;-51
2021/09/01 01:08:13;;;;;;;10.40;7.07;;;;;;;12.15;87.42;102243.22;5040803;28;20026;-52
2021/09/01 01:10:40;;;;;;;13.63;7.43;;;;;;;12.03;87.77;102251.22;5042530;28;20255;-50
2021/09/01 01:13:09;;;;;;;10.75;7.13;;;;;;;11.89;88.33;102244.31;5041136;28;20094;-50
2021/09/01 01:15:38;;;;;;;12.07;7.18;;;;;;;11.82;88.26;102256.94;5038399;28;20559;-51
2021/09/01 01:18:10;;;;;;;13.02;7.60;;;;;;;11.74;88.75;102248.09;5041544;28;20040;-50
2021/09/01 01:20:36;;;;;;;12.60;7.68;;;;;;;11.68;89.64;102257.06;5042096;28;20479;-52
2021/09/01 01:23:02;;;;;;;13.45;7.63;;;;;;;11.70;89.38;102251.47;5044623;28;20037;-51
2021/09/01 01:25:34;;;;;;;11.07;7.22;;;;;;;11.58;89.09;102259.38;5038213;28;20484;-53
2021/09/01 01:27:59;;;;;;;11.38;6.50;;;;;;;11.54;89.18;102262.72;5042670;28;20411;-51
2021/09/01 01:30:25;;;;;;;10.95;7.18;;;;;;;11.36;90.07;102260.78;5043259;28;20036;-53
2021/09/01 01:32:52;;;;;;;10.02;6.78;;;;;;;11.34;90.70;102263.69;5039947;28;20037;-54
2021/09/01 01:35:25;;;;;;;12.93;7.07;;;;;;;11.34;90.65;102262.88;5039774;28;20029;-52
2021/09/01 01:37:50;;;;;;;10.73;6.97;;;;;;;11.38;90.87;102264.06;5039743;28;20108;-50
2021/09/01 01:40:16;;;;;;;10.02;7.18;;;;;;;11.46;90.64;102261.13;5043590;28;20496;-51
2021/09/01 01:42:43;;;;;;;11.00;7.35;;;;;;;11.53;89.48;102261.91;5042209;28;20082;-53
2021/09/01 01:45:10;;;;;;;9.60;6.65;;;;;;;11.50;89.25;102260.50;5041943;28;20036;-53
2021/09/01 01:47:36;;;;;;;11.82;6.80;;;;;;;11.47;89.54;102260.06;5041463;28;20060;-51
2021/09/01 01:50:01;;;;;;;10.02;6.60;;;;;;;11.40;89.73;102267.34;5041200;28;20037;-52
2021/09/01 01:52:26;;;;;;;13.93;7.93;;;;;;;11.33;90.60;102263.91;5041342;28;20100;-53
2021/09/01 01:54:52;;;;;;;11.25;6.80;;;;;;;11.33;90.76;102255.84;5043157;28;20028;-51
2021/09/01 01:57:19;;;;;;;15.57;7.57;;;;;;;11.30;90.02;102262.44;5041673;28;20363;-50
2021/09/01 01:59:44;;;;;;;12.10;7.85;;;;;;;11.19;89.97;102263.97;5039755;28;20037;-50
2021/09/01 02:02:10;;;;;;;11.68;7.53;;;;;;;11.10;90.48;102265.25;5039199;28;20502;-54
2021/09/01 02:04:36;;;;;;;14.60;7.40;;;;;;;11.23;90.07;102269.72;5042477;28;20024;-50
2021/09/01 02:07:02;;;;;;;12.13;6.97;;;;;;;11.22;88.98;102272.63;5040301;28;20047;-50
2021/09/01 02:09:27;;;;;;;12.27;8.30;;;;;;;11.23;88.78;102266.22;5040589;28;20112;-53
2021/09/01 02:11:53;;;;;;;10.25;7.47;;;;;;;11.19;88.64;102269.34;5041988;28;20029;-51
2021/09/01 02:14:18;;;;;;;14.85;8.25;;;;;;;11.14;88.68;102266.50;5038499;28;20311;-53
2021/09/01 02:16:43;;;;;;;16.52;7.78;;;;;;;10.93;90.09;102265.94;5041541;28;20028;-54
2021/09/01 02:19:10;;;;;;;13.45;8.00;;;;;;;10.94;89.09;102264.91;5043861;28;20032;-51
2021/09/01 02:21:37;;;;;;;14.25;8.32;;;;;;;10.84;89.89;102262.69;5039882;28;20029;-52
2021/09/01 02:24:03;;;;;;;13.57;7.75;;;;;;;10.77;91.68;102264.56;5042047;28;20035;-53
2021/09/01 02:26:29;;;;;;;14.23;8.50;;;;;;;10.76;91.23;102262.94;5043508;28;20021;-50
2021/09/01 02:28:55;;;;;;;15.48;8.18;;;;;;;10.59;91.64;102258.06;5041467;28;20030;-53
2021/09/01 02:31:20;;;;;;;12.18;7.70;;;;;;;10.58;91.87;102259.06;5039784;28;20033;-54
2021/09/01 02:33:46;;;;;;;12.40;8.07;;;;;;;10.67;91.57;102250.81;5040672;28;20128;-52
2021/09/01 02:36:11;;;;;;;14.70;7.40;;;;;;;10.70;92.21;102245.03;5044156;28;20025;-54
2021/09/01 02:38:41;;;;;;;13.15;8.48;;;;;;;10.66;91.72;102251.84;5041448;28;20029;-50
2021/09/01 02:41:07;;;;;;;13.55;8.20;;;;;;;10.58;91.15;102252.88;5039988;28;20033;-52
2021/09/01 02:43:32;;;;;;;11.77;8.30;;;;;;;10.53;91.08;102245.50;5038290;28;20379;-52
2021/09/01 02:45:57;;;;;;;16.60;8.98;;;;;;;10.44;92.26;102245.94;5039113;28;20071;-52
2021/09/01 02:48:23;;;;;;;14.60;8.10;;;;;;;10.52;92.10;102249.19;5039341;28;20029;-51
2021/09/01 02:50:48;;;;;;;12.25;8.00;;;;;;;10.40;92.12;102245.53;5041990;28;20339;-50
2021/09/01 02:53:14;;;;;;;13.80;7.65;;;;;;;10.37;93.13;102247.81;5039355;28;20842;-53
2021/09/01 02:55:40;;;;;;;17.17;8.10;;;;;;;10.37;92.54;102245.94;5038856;28;20040;-51
2021/09/01 02:58:05;;;;;;;12.27;7.45;;;;;;;10.32;91.88;102255.66;5039739;28;20028;-52
2021/09/01 03:00:31;;;;;;;10.45;6.55;;;;;;;10.25;91.29;102247.66;5037636;28;20037;-52
2021/09/01 03:02:57;;;;;;;13.57;7.95;;;;;;;10.20;91.98;102245.53;5040926;28;20025;-50
2021/09/01 03:05:22;;;;;;;12.13;8.27;;;;;;;10.26;91.80;102254.66;5038607;28;20083;-52
2021/09/01 03:07:48;;;;;;;12.57;7.10;;;;;;;10.15;91.89;102248.03;5039141;28;20563;-50
2021/09/01 03:10:13;;;;;;;13.55;7.55;;;;;;;10.14;91.90;102250.91;5038819;28;20029;-52
2021/09/01 03:12:39;;;;;;;9.20;6.57;;;;;;;10.08;92.14;102247.22;5038435;28;20118;-50
2021/09/01 03:15:05;;;;;;;10.13;6.72;;;;;;;9.97;92.60;102256.69;5039946;28;20043;-53
2021/09/01 03:17:30;;;;;;;13.98;7.90;;;;;;;10.07;92.67;102260.81;5041116;28;20483;-50
2021/09/01 03:19:56;;;;;;;14.30;8.35;;;;;;;10.03;92.97;102262.25;5034826;28;20031;-51
2021/09/01 03:22:21;;;;;;;13.02;7.80;;;;;;;10.03;93.30;102264.91;5039831;28;20029;-53
2021/09/01 03:24:46;;;;;;;12.50;8.43;;;;;;;10.07;93.87;102266.19;5040962;28;20032;-50
2021/09/01 03:27:12;;;;;;;12.45;7.82;;;;;;;10.10;93.57;102265.75;5040073;28;20014;-51
2021/09/01 03:29:37;;;;;;;15.63;8.23;;;;;;;10.09;93.79;102266.78;5039905;28;20037;-50
2021/09/01 03:32:03;;;;;;;11.95;8.55;;;;;;;10.07;93.50;102272.34;5040457;28;20036;-52
2021/09/01 03:34:29;;;;;;;12.52;7.60;;;;;;;10.06;93.68;102269.88;5041661;28;20364;-53
2021/09/01 03:36:54;;;;;;;14.45;8.05;;;;;;;9.97;94.46;102274.63;5037121;28;20024;-52
2021/09/01 03:39:20;;;;;;;14.18;7.45;;;;;;;9.93;94.21;102270.72;5043065;28;20025;-52
2021/09/01 03:41:45;;;;;;;12.45;8.10;;;;;;;9.89;94.56;102269.47;5041896;28;20552;-51
2021/09/01 03:44:11;;;;;;;13.68;8.27;;;;;;;9.90;95.48;102271.13;5040585;28;20444;-53
2021/09/01 03:46:36;;;;;;;14.85;7.85;;;;;;;9.91;95.15;102273.59;5039432;28;20487;-51
2021/09/01 03:49:02;;;;;;;14.52;9.00;;;;;;;9.87;95.66;102276.88;5038353;28;21572;-50
2021/09/01 03:51:27;;;;;;;14.35;8.40;;;;;;;9.87;95.24;102272.34;5043618;28;20078;-55
2021/09/01 03:53:53;;;;;;;17.30;9.70;;;;;;;9.86;95.17;102277.91;5042691;28;20326;-54
2021/09/01 03:56:18;;;;;;;18.67;10.80;;;;;;;9.88;95.84;102273.19;5035897;28;20111;-53
2021/09/01 03:58:44;;;;;;;17.42;9.93;;;;;;;9.89;95.70;102272.97;5037865;28;20509;-50
2021/09/01 04:01:09;;;;;;;14.93;8.88;;;;;;;9.92;95.43;102277.09;5037753;28;20437;-54
2021/09/01 04:03:35;;;;;;;15.35;9.43;;;;;;;9.88;96.11;102284.72;5038171;28;20033;-50
2021/09/01 04:06:00;;;;;;;19.65;10.70;;;;;;;9.90;96.07;102287.19;5038697;28;20025;-52
2021/09/01 04:08:26;;;;;;;17.23;8.75;;;;;;;9.93;96.02;102284.09;5039462;28;20035;-52
2021/09/01 04:10:51;;;;;;;15.35;9.48;;;;;;;9.93;96.71;102287.59;5037591;28;20044;-51
2021/09/01 04:13:17;;;;;;;17.42;9.80;;;;;;;9.92;96.51;102293.16;5039983;28;20029;-51
2021/09/01 04:15:42;;;;;;;14.95;8.95;;;;;;;9.93;96.73;102295.63;5035203;28;20023;-54
2021/09/01 04:18:08;;;;;;;19.42;9.85;;;;;;;9.92;96.98;102293.16;5037892;28;20025;-51
2021/09/01 04:20:33;;;;;;;16.83;8.25;;;;;;;9.93;96.78;102295.63;5039014;28;20253;-51
2021/09/01 04:22:59;;;;;;;12.80;7.80;;;;;;;9.96;96.99;102303.25;5038743;28;20036;-52
2021/09/01 04:25:24;;;;;;;13.73;8.15;;;;;;;9.99;96.49;102302.81;5036272;28;20120;-51
2021/09/01 04:27:50;;;;;;;15.98;8.50;;;;;;;9.97;97.34;102299.53;5035381;28;20192;-55
2021/09/01 04:30:15;;;;;;;16.85;8.82;;;;;;;10.01;97.30;102305.28;5034569;28;20436;-52
2021/09/01 04:32:41;;;;;;;18.00;9.73;;;;;;;10.08;97.26;102316.03;5036686;28;20029;-54
2021/09/01 04:35:07;;;;;;;20.38;10.00;;;;;;;10.14;97.23;102312.50;5037941;28;20029;-52
2021/09/01 04:37:32;;;;;;;16.48;8.02;;;;;;;10.15;96.91;102311.47;5035682;28;20060;-53
2021/09/01 04:39:58;;;;;;;21.13;10.50;;;;;;;10.20;97.26;102314.34;5037115;28;20515;-54
2021/09/01 04:42:23;;;;;;;15.38;8.68;;;;;;;10.31;97.40;102319.13;5037700;28;20082;-52
2021/09/01 04:44:49;;;;;;;13.25;8.02;;;;;;;10.50;97.22;102304.88;5031534;28;20120;-52
2021/09/01 04:47:14;;;;;;;15.88;8.02;;;;;;;10.70;96.90;102323.59;5033253;28;20061;-52
2021/09/01 04:49:40;;;;;;;14.40;8.80;;;;;;;10.90;96.30;102320.84;5034974;28;20487;-51
2021/09/01 04:52:05;;;;;;;15.30;8.35;;;;;;;11.04;97.00;102316.25;5035423;28;20025;-50
2021/09/01 04:54:32;;;;;;;13.80;9.07;;;;;;;11.19;96.26;102320.31;5039447;28;20029;-54
2021/09/01 04:56:57;;;;;;;15.23;9.15;;;;;;;11.40;95.13;102321.03;5035940;28;20537;-52
2021/09/01 04:59:23;;;;;;;15.88;8.70;;;;;;;11.57;93.78;102330.22;5036683;28;20040;-53
2021/09/01 05:01:48;;;;;;;12.63;7.75;;;;;;;11.69;93.35;102339.25;5034916;28;20035;-52
2021/09/01 05:04:14;;;;;;;14.55;8.38;;;;;;;11.77;93.44;102336.28;5035260;28;20108;-52
2021/09/01 05:06:39;;;;;;;16.77;8.73;;;;;;;11.84;94.09;102335.44;5036567;28;20040;-50
2021/09/01 05:09:05;;;;;;;13.55;8.55;;;;;;;11.98;93.23;102337.81;5036162;28;20059;-54
2021/09/01 05:11:30;;;;;;;29.13;11.85;;;;;;;12.13;92.38;102332.13;5035097;28;20033;-55
2021/09/01 05:13:56;;;;;;;15.95;8.52;;;;;;;12.27;91.85;102346.25;5034871;28;20028;-52
2021/09/01 05:16:21;;;;;;;11.77;8.23;;;;;;;12.38;91.96;102340.97;5037685;28;20398;-51
2021/09/01 05:18:47;;;;;;;16.55;8.60;;;;;;;12.49;91.55;102334.06;5037605;28;20044;-52
2021/09/01 05:21:14;;;;;;;12.88;8.25;;;;;;;12.61;91.46;102344.91;5034500;28;20025;-52
2021/09/01 05:23:41;;;;;;;13.13;8.15;;;;;;;12.74;91.39;102339.38;5040139;28;20029;-53
2021/09/01 05:26:07;;;;;;;12.45;8.18;;;;;;;12.82;91.75;102331.03;5060215;22;20037;-84
2021/09/01 05:28:35;;;;;;;12.15;8.35;;;;;;;12.94;90.63;102334.63;5056878;28;20036;-84
2021/09/01 05:31:03;;;;;;;9.40;6.65;;;;;;;13.01;90.66;102339.91;5072783;28;21979;-84
2021/09/01 05:33:32;;;;;;;10.02;7.18;;;;;;;13.08;91.17;102347.88;5059527;28;20029;-84
2021/09/01 05:35:58;;;;;;;13.85;7.55;;;;;;;13.19;91.30;102342.59;5058806;28;20048;-83
2021/09/01 05:38:24;;;;;;;13.77;7.25;;;;;;;13.43;90.69;102343.53;5062316;28;20387;-83
2021/09/01 05:40:51;;;;;;;11.88;7.22;;;;;;;13.60;89.44;102341.84;5062143;28;20040;-83
2021/09/01 05:43:18;;;;;;;13.30;7.45;;;;;;;13.70;88.78;102343.97;5061246;28;20028;-84
2021/09/01 05:45:46;;;;;;;13.75;6.82;;;;;;;13.87;87.52;102349.53;5063014;28;20036;-84
2021/09/01 05:48:11;;;;;;;11.70;7.10;;;;;;;13.98;87.22;102350.59;5079677;28;20021;-84
2021/09/01 05:50:39;;;;;;;10.52;6.00;;;;;;;14.12;86.52;102349.34;5064029;28;20490;-84
2021/09/01 05:53:04;;;;;;;11.77;5.90;;;;;;;14.23;86.41;102353.09;5060492;28;20032;-83
2021/09/01 05:55:32;;;;;;;11.07;5.90;;;;;;;14.32;85.79;102340.91;5063255;28;20490;-84
2021/09/01 05:58:01;;;;;;;10.85;6.43;;;;;;;14.37;85.75;102344.56;5060910;28;20024;-83
2021/09/01 06:00:32;;;;;;;9.90;5.53;;;;;;;14.42;85.16;102341.16;5060793;28;20490;-83
2021/09/01 06:03:19;;;;;;;10.90;5.80;;;;;;;14.46;85.27;102342.34;5080266;28;20032;-84
2021/09/01 06:05:46;;;;;;;11.93;5.90;;;;;;;14.40;86.47;102348.66;5065691;28;20044;-84
2021/09/01 06:08:12;;;;;;;9.43;5.38;;;;;;;14.47;85.70;102346.69;5063451;28;20329;-84
2021/09/01 06:10:38;;;;;;;9.68;6.07;;;;;;;14.57;85.10;102352.31;5063629;28;20037;-83
2021/09/01 06:13:06;;;;;;;12.27;5.72;;;;;;;14.63;85.21;102353.25;5061384;28;20206;-84
2021/09/01 06:15:33;;;;;;;10.07;6.38;;;;;;;14.69;85.22;102360.38;5062514;28;20059;-84
2021/09/01 06:17:59;;;;;;;10.13;6.00;;;;;;;14.74;85.30;102364.03;5061284;28;20021;-83
2021/09/01 06:20:26;;;;;;;9.52;6.03;;;;;;;14.94;84.53;102374.44;5061513;28;20028;-84
2021/09/01 06:22:52;;;;;;;9.55;5.80;;;;;;;15.05;84.24;102378.16;5064051;28;20119;-84
2021/09/01 06:25:18;;;;;;;9.70;5.88;;;;;;;15.11;84.24;102369.94;5059691;28;20086;-84
2021/09/01 06:27:43;;;;;;;8.65;5.15;;;;;;;15.26;83.30;102376.69;5064293;28;20024;-84
2021/09/01 06:30:10;;;;;;;10.05;5.45;;;;;;;15.31;83.56;102376.81;5064043;28;20028;-85
2021/09/01 06:32:37;;;;;;;9.05;5.32;;;;;;;15.69;82.19;102371.63;5064898;28;20045;-84
2021/09/01 06:35:02;;;;;;;9.73;5.53;;;;;;;16.17;80.95;102380.31;5062352;28;20035;-83
2021/09/01 06:37:28;;;;;;;9.80;5.55;;;;;;;16.46;78.93;102383.72;5058395;28;20025;-84
2021/09/01 06:39:54;;;;;;;9.18;5.18;;;;;;;16.52;78.34;102388.97;5061237;28;20394;-84
2021/09/01 06:42:19;;;;;;;9.35;5.72;;;;;;;16.35;78.23;102382.75;5063922;28;20028;-85
2021/09/01 06:44:45;;;;;;;11.60;5.90;;;;;;;16.46;78.46;102379.13;5062189;28;20032;-84
2021/09/01 06:47:11;;;;;;;9.73;5.75;;;;;;;16.32;79.11;102383.22;5063083;28;20031;-84
2021/09/01 06:49:37;;;;;;;9.43;5.63;;;;;;;16.57;78.81;102385.50;5063929;28;20055;-84
2021/09/01 06:52:03;;;;;;;8.95;5.38;;;;;;;16.78;78.09;102384.75;5081420;28;20024;-85
2021/09/01 06:54:29;;;;;;;11.95;5.25;;;;;;;16.93;77.44;102389.56;5067405;28;20025;-84
2021/09/01 06:56:54;;;;;;;7.28;5.43;;;;;;;17.01;77.35;102397.25;5059917;28;20028;-84
2021/09/01 06:59:20;;;;;;;11.65;5.60;;;;;;;17.11;77.05;102391.97;5062622;28;20020;-83
2021/09/01 07:01:45;;;;;;;10.13;5.82;;;;;;;17.34;76.67;102392.78;5063908;28;20032;-84
2021/09/01 07:04:10;;;;;;;9.55;5.90;;;;;;;17.44;76.65;102398.31;5061832;28;20024;-83
2021/09/01 07:06:36;;;;;;;11.05;6.30;;;;;;;17.62;76.22;102400.69;5061220;28;20391;-83
2021/09/01 07:09:01;;;;;;;9.70;6.22;;;;;;;17.66;76.07;102398.28;5062163;28;20021;-83
2021/09/01 07:11:27;;;;;;;11.68;6.15;;;;;;;17.69;76.34;102405.94;5061716;28;20025;-84
2021/09/01 07:13:52;;;;;;;11.15;5.93;;;;;;;17.80;75.86;102404.97;5062893;28;20032;-84
2021/09/01 07:16:18;;;;;;;8.43;5.40;;;;;;;17.89;75.69;102408.03;5062929;28;20025;-84
2021/09/01 07:18:43;;;;;;;11.77;5.80;;;;;;;17.75;75.99;102407.59;5060652;28;20025;-84
2021/09/01 07:21:09;;;;;;;10.60;5.97;;;;;;;17.69;75.78;102412.16;5064162;28;20945;-84
2021/09/01 07:23:35;;;;;;;11.13;5.63;;;;;;;17.78;75.64;102416.06;5066666;28;21115;-83
2021/09/01 07:26:01;;;;;;;11.98;5.90;;;;;;;17.99;75.61;102421.69;5072130;28;20103;-84
2021/09/01 07:28:27;;;;;;;10.90;5.65;;;;;;;17.93;76.05;102420.81;5063004;28;20028;-83
2021/09/01 07:30:52;;;;;;;9.13;5.40;;;;;;;18.25;75.52;102417.28;5065948;28;20060;-85
2021/09/01 07:33:18;;;;;;;8.90;5.13;;;;;;;18.58;74.29;102421.63;5062324;28;20116;-84
2021/09/01 07:35:45;;;;;;;9.13;5.13;;;;;;;18.80;73.90;102427.75;5057975;28;20115;-85
2021/09/01 07:38:11;;;;;;;9.30;5.25;;;;;;;19.05;73.32;102431.72;5063853;28;20020;-84
2021/09/01 07:40:36;;;;;;;8.50;4.85;;;;;;;19.09;70.66;102424.66;5062349;28;20410;-84
2021/09/01 07:43:02;;;;;;;9.98;5.10;;;;;;;19.10;71.54;102423.59;5063326;28;20099;-85
2021/09/01 07:45:30;;;;;;;11.52;5.10;;;;;;;19.40;71.27;102420.19;5062649;28;20024;-84
2021/09/01 07:47:56;;;;;;;6.15;4.60;;;;;;;19.59;70.25;102416.75;5061565;28;20103;-84
2021/09/01 07:50:29;;;;;;;7.15;3.85;;;;;;;19.87;69.10;102417.31;5066836;28;20052;-84
2021/09/01 07:52:55;;;;;;;6.78;4.28;;;;;;;19.99;68.62;102420.59;5063168;28;20494;-84
2021/09/01 07:55:21;;;;;;;7.60;4.32;;;;;;;20.15;68.31;102424.16;5063653;28;20122;-85
2021/09/01 07:57:47;;;;;;;7.57;4.20;;;;;;;20.25;67.16;102423.31;5062812;28;20024;-84
2021/09/01 08:00:13;;;;;;;6.97;4.53;;;;;;;20.33;66.45;102430.97;5060494;28;20477;-85
2021/09/01 08:02:39;;;;;;;7.50;5.25;;;;;;;20.56;66.45;102421.44;5063824;28;20024;-84
2021/09/01 08:05:06;;;;;;;7.55;4.70;;;;;;;20.67;64.91;102428.50;5063235;28;20414;-85
2021/09/01 08:07:32;;;;;;;7.13;4.15;;;;;;;20.56;64.18;102430.41;5060407;28;20029;-84
2021/09/01 08:09:58;;;;;;;7.78;4.22;;;;;;;20.66;64.34;102435.88;5063297;28;20052;-85
2021/09/01 08:12:24;;;;;;;7.68;4.03;;;;;;;20.88;63.88;102441.00;5060380;28;20113;-84
2021/09/01 08:14:49;;;;;;;7.25;3.88;;;;;;;20.93;61.56;102443.69;5058389;28;20036;-86
2021/09/01 08:17:15;;;;;;;6.93;3.80;;;;;;;21.07;61.30;102441.22;5063252;28;20093;-84
2021/09/01 08:19:42;;;;;;;6.82;3.30;;;;;;;21.17;61.24;102446.59;5056504;28;20193;-84
2021/09/01 08:22:08;;;;;;;5.85;3.50;;;;;;;20.86;59.98;102445.09;5056123;28;20029;-84
2021/09/01 08:24:33;;;;;;;6.30;3.17;;;;;;;21.07;58.96;102438.47;5061166;28;20024;-85
2021/09/01 08:26:59;;;;;;;7.03;3.50;;;;;;;21.18;60.08;102440.06;5063101;28;20024;-85
2021/09/01 08:29:24;;;;;;;4.25;3.08;;;;;;;21.22;59.78;102453.97;5071573;28;20025;-87
2021/09/01 08:31:50;;;;;;;4.07;2.72;;;;;;;21.27;58.78;102462.16;5066991;28;20098;-88
2021/09/01 08:34:15;;;;;;;4.43;2.95;;;;;;;21.42;58.79;102462.91;5067710;28;20867;-86
2021/09/01 08:36:41;;;;;;;5.82;2.92;;;;;;;21.67;57.99;102453.78;5063605;28;20017;-88
2021/09/01 08:39:06;;;;;;;6.43;3.22;;;;;;;21.87;57.96;102461.00;5063583;28;20558;-86
2021/09/01 08:41:32;;;;;;;6.13;3.45;;;;;;;22.01;57.36;102458.47;5067950;28;20107;-87
2021/09/01 08:43:59;;;;;;;4.60;2.95;;;;;;;22.17;56.73;102453.75;5062950;28;20082;-87
2021/09/01 08:46:25;;;;;;;3.45;2.63;;;;;;;22.13;55.97;102455.44;5063355;28;20112;-85
2021/09/01 08:48:52;;;;;;;5.57;3.05;;;;;;;22.11;55.08;102457.63;5058313;28;20052;-85
2021/09/01 08:51:19;;;;;;;5.05;3.85;;;;;;;22.06;55.23;102449.47;5064990;28;20029;-85
2021/09/01 08:53:45;;;;;;;4.68;2.80;;;;;;;22.19;55.76;102457.81;5059531;28;20083;-85
2021/09/01 08:56:10;;;;;;;6.38;3.15;;;;;;;22.13;55.50;102458.16;5065758;28;20021;-85
2021/09/01 08:58:36;;;;;;;5.13;3.00;;;;;;;22.09;55.27;102462.56;5069747;28;20143;-86
2021/09/01 09:01:01;;;;;;;4.50;2.80;;;;;;;22.13;55.68;102460.88;5061816;28;20127;-86
2021/09/01 09:03:29;;;;;;;4.88;2.90;;;;;;;22.25;55.39;102461.31;5053558;28;20025;-86
2021/09/01 09:06:02;;;;;;;4.93;2.97;;;;;;;22.52;54.77;102471.75;5054274;28;20131;-85
2021/09/01 09:08:31;;;;;;;5.18;2.90;;;;;;;22.71;53.90;102471.84;5060776;28;20039;-85
2021/09/01 09:10:57;;;;;;;3.85;2.30;;;;;;;22.73;54.50;102470.47;5058520;28;20032;-85
2021/09/01 09:13:34;;;;;;;4.10;2.63;;;;;;;22.87;53.50;102465.16;5072582;28;20025;-86
2021/09/01 09:16:02;;;;;;;5.90;2.45;;;;;;;23.07;53.23;102473.13;5066828;28;20025;-86
2021/09/01 09:18:30;;;;;;;7.13;3.00;;;;;;;23.21;53.52;102481.47;5063180;28;20032;-86
2021/09/01 09:21:21;;;;;;;4.68;2.35;;;;;;;23.24;51.38;102480.06;5069587;28;20111;-86
2021/09/01 09:23:49;;;;;;;3.13;2.47;;;;;;;23.41;51.63;102480.41;5073540;28;20024;-86
2021/09/01 09:26:22;;;;;;;5.30;3.00;;;;;;;23.57;51.00;102479.13;5074273;28;20509;-85
2021/09/01 09:29:12;;;;;;;6.28;3.13;;;;;;;23.74;50.66;102476.72;5070417;28;20036;-85
2021/09/01 09:31:40;;;;;;;4.57;2.70;;;;;;;23.01;49.47;102478.97;5067907;28;20111;-86
2021/09/01 09:34:08;;;;;;;3.47;2.15;;;;;;;23.33;50.62;102479.09;5080323;22;20048;-85
2021/09/01 09:36:34;;;;;;;3.97;2.83;;;;;;;23.62;49.71;102489.19;5071031;28;20064;-85
2021/09/01 09:38:59;;;;;;;4.10;2.88;;;;;;;23.86;49.28;102476.25;5067055;28;20047;-85
2021/09/01 09:41:27;;;;;;;5.60;2.95;;;;;;;23.87;49.14;102482.53;5069499;28;20039;-85
2021/09/01 09:43:55;;;;;;;4.47;2.30;;;;;;;24.03;47.99;102479.28;5072316;28;20024;-86
2021/09/01 09:46:21;;;;;;;4.63;2.90;;;;;;;24.02;47.98;102482.31;5067985;28;20644;-85
2021/09/01 09:48:48;;;;;;;4.13;2.72;;;;;;;24.24;48.37;102488.00;5069589;28;20103;-85
2021/09/01 09:51:19;;;;;;;4.10;2.95;;;;;;;24.26;46.10;102477.56;5089121;28;20048;-84
2021/09/01 09:53:46;;;;;;;4.88;2.42;;;;;;;24.49;47.73;102464.06;5071161;28;20028;-85
2021/09/01 09:56:23;;;;;;;5.13;2.40;;;;;;;24.63;46.87;102473.13;5070452;28;20028;-85
2021/09/01 09:58:52;;;;;;;3.67;2.20;;;;;;;24.42;45.64;102464.47;5064838;28;20128;-86
2021/09/01 10:01:19;;;;;;;5.45;2.67;;;;;;;24.74;46.09;102471.00;5087841;28;20512;-86
2021/09/01 10:03:46;;;;;;;4.07;2.78;;;;;;;24.97;46.12;102467.28;5073261;28;20107;-85
2021/09/01 10:06:14;;;;;;;4.50;2.50;;;;;;;25.20;46.00;102465.50;5066657;28;20024;-85
2021/09/01 10:08:40;;;;;;;6.13;2.65;;;;;;;25.37;45.86;102468.41;5065019;28;20057;-87
2021/09/01 10:11:10;;;;;;;3.65;2.60;;;;;;;25.37;45.65;102462.94;5086864;28;20449;-85
2021/09/01 10:13:39;;;;;;;5.72;2.58;;;;;;;25.13;45.68;102462.31;5069268;28;20287;-85
2021/09/01 10:16:20;;;;;;;4.60;3.03;;;;;;;25.43;44.52;102461.69;5070174;28;20028;-84
2021/09/01 10:19:08;;;;;;;3.83;2.42;;;;;;;25.18;43.89;102457.56;5085218;28;20036;-85
2021/09/01 10:21:40;;;;;;;5.65;2.50;;;;;;;24.92;45.05;102459.16;5088554;28;20035;-85
2021/09/01 10:24:32;;;;;;;4.30;2.38;;;;;;;25.10;45.85;102460.19;5080630;28;20028;-85
2021/09/01 10:26:59;;;;;;;3.85;2.63;;;;;;;24.60;45.15;102454.56;5065327;28;20035;-85
2021/09/01 10:29:42;;;;;;;3.15;2.78;;;;;;;24.77;46.27;102452.03;5068012;28;20409;-85
2021/09/01 10:32:17;;;;;;;3.28;2.72;;;;;;;24.79;47.01;102458.03;5084577;28;20496;-85
2021/09/01 10:34:43;;;;;;;3.55;2.42;;;;;;;24.86;44.41;102452.97;5069286;28;20027;-86
2021/09/01 10:37:08;;;;;;;4.47;2.85;;;;;;;25.03;44.93;102455.13;5064051;28;20052;-85
2021/09/01 10:39:34;;;;;;;3.70;2.80;;;;;;;24.23;43.02;102467.19;5065018;28;20032;-85
2021/09/01 10:42:31;;;;;;;4.00;2.80;;;;;;;24.68;44.58;102456.59;5071804;28;20024;-85
2021/09/01 10:44:57;;;;;;;4.72;2.50;;;;;;;24.73;44.82;102458.41;5067388;28;20043;-84
2021/09/01 10:47:22;;;;;;;4.43;2.53;;;;;;;25.00;44.29;102459.28;5061287;28;20054;-85
2021/09/01 10:49:54;;;;;;;4.97;3.05;;;;;;;24.63;42.86;102451.22;5066797;28;20067;-84
2021/09/01 10:52:19;;;;;;;5.10;2.22;;;;;;;24.76;43.85;102461.34;5085331;28;20027;-85
2021/09/01 10:54:46;;;;;;;3.72;2.20;;;;;;;25.18;44.12;102462.25;5066850;28;20054;-85
2021/09/01 10:57:27;;;;;;;4.22;2.30;;;;;;;25.58;44.16;102463.31;5064476;28;20052;-85
2021/09/01 10:59:58;;;;;;;5.68;2.83;;;;;;;25.59;43.73;102457.50;5069487;28;20096;-85
2021/09/01 11:02:24;;;;;;;6.82;2.55;;;;;;;25.39;43.16;102468.91;5067698;28;20030;-84
2021/09/01 11:04:52;;;;;;;3.05;2.40;;;;;;;25.22;43.60;102472.28;5066118;28;20032;-85
2021/09/01 11:07:24;;;;;;;4.95;2.67;;;;;;;25.60;43.53;102467.34;5064553;28;20482;-84
2021/09/01 11:09:54;;;;;;;4.10;2.60;;;;;;;25.57;43.80;102467.16;5069211;28;20048;-84
2021/09/01 11:12:21;;;;;;;5.00;2.40;;;;;;;25.30;42.38;102468.00;5078364;28;20103;-85
2021/09/01 11:14:50;;;;;;;3.30;2.20;;;;;;;24.87;42.14;102470.22;5068238;28;20466;-84
2021/09/01 11:17:19;;;;;;;2.63;1.80;;;;;;;25.06;42.76;102468.22;5062079;28;20406;-84
2021/09/01 11:19:51;;;;;;;3.70;2.33;;;;;;;25.37;43.45;102473.09;5064460;28;20020;-84
2021/09/01 11:22:25;;;;;;;3.67;2.25;;;;;;;25.30;42.61;102468.00;5067688;28;20073;-84
2021/09/01 11:24:52;;;;;;;3.75;2.38;;;;;;;24.76;42.19;102475.06;5084884;28;20115;-83